Time;durP1;ratioP1;P1;durP2;ratioP2;P2;SDS_P1;SDS_P2;PMS_P1;PMS_P2;Temp;Humidity;BMP_temperature;BMP_pressure;BME280_temperature;BME280_humidity;BME280_pressure;Samples;Min_cycle;Max_cycle;Signal;HPM_P1;HPM_P2
2022/01/13 00:01:57;;;;;;;52.17;27.58;;;7.00;75.50;;;;;;4982495;28;20042;-50
2022/01/13 00:04:25;;;;;;;51.00;26.40;;;6.90;75.40;;;;;;4972300;28;20042;-49
2022/01/13 00:06:51;;;;;;;46.17;25.63;;;6.90;75.50;;;;;;4972664;28;20494;-52
2022/01/13 00:09:18;;;;;;;44.55;24.73;;;6.90;75.60;;;;;;4970338;28;20053;-52
2022/01/13 00:11:47;;;;;;;53.63;28.48;;;6.90;75.60;;;;;;4974620;28;20043;-50
2022/01/13 00:24:59;;;;;;;50.65;25.80;;;6.90;75.50;;;;;;4966991;28;20047;-52
2022/01/13 00:27:29;;;;;;;46.58;25.58;;;6.90;75.50;;;;;;4977090;28;20588;-49
2022/01/13 00:29:59;;;;;;;53.60;29.08;;;6.90;75.60;;;;;;4985360;28;20050;-51
2022/01/13 00:32:29;;;;;;;56.20;28.25;;;6.90;75.60;;;;;;4993082;28;20616;-51
2022/01/13 00:34:56;;;;;;;42.35;25.17;;;6.90;75.70;;;;;;4978950;28;20038;-52
2022/01/13 00:37:22;;;;;;;48.30;26.02;;;6.90;75.60;;;;;;4984228;28;20533;-49
2022/01/13 00:39:49;;;;;;;47.65;28.42;;;6.90;75.60;;;;;;4985505;28;20065;-53
2022/01/13 00:42:16;;;;;;;46.22;26.05;;;6.90;75.70;;;;;;4993210;28;20074;-52
2022/01/13 00:44:45;;;;;;;58.30;28.80;;;6.90;75.60;;;;;;4976892;28;20046;-49
2022/01/13 00:47:16;;;;;;;57.88;27.95;;;6.90;75.40;;;;;;4981837;28;20093;-52
2022/01/13 00:49:42;;;;;;;51.03;27.80;;;6.90;75.40;;;;;;4976612;28;20617;-49
2022/01/13 00:52:10;;;;;;;53.80;28.65;;;6.90;75.30;;;;;;4966519;28;20090;-50
2022/01/13 00:54:37;;;;;;;52.15;28.75;;;6.90;75.20;;;;;;4968752;28;20038;-50
2022/01/13 00:57:04;;;;;;;53.72;29.33;;;6.80;75.20;;;;;;4981427;28;20557;-51
2022/01/13 00:59:30;;;;;;;59.92;29.92;;;6.80;75.20;;;;;;4973084;28;20503;-49
2022/01/13 01:01:57;;;;;;;58.92;30.38;;;6.80;75.20;;;;;;4969491;28;20043;-52
2022/01/13 01:04:27;;;;;;;50.95;28.02;;;6.80;75.20;;;;;;4975312;28;20813;-49
2022/01/13 01:06:54;;;;;;;52.40;28.52;;;6.80;75.20;;;;;;4992680;28;20093;-50
2022/01/13 01:09:39;;;;;;;62.30;31.65;;;6.70;75.30;;;;;;4975753;28;20499;-50
2022/01/13 01:12:08;;;;;;;61.75;30.67;;;6.70;75.40;;;;;;4969653;28;20031;-50
2022/01/13 01:14:40;;;;;;;60.75;29.35;;;6.70;75.40;;;;;;4975639;28;20043;-52
2022/01/13 01:17:07;;;;;;;59.88;30.40;;;6.70;75.40;;;;;;4980798;28;20034;-51
2022/01/13 01:19:36;;;;;;;64.20;30.02;;;6.70;75.50;;;;;;4973063;28;20105;-49
2022/01/13 01:27:52;;;;;;;62.75;29.95;;;6.60;75.60;;;;;;4962735;28;20063;-50
2022/01/13 01:30:41;;;;;;;59.88;32.30;;;6.60;75.50;;;;;;4953488;28;20106;-50
2022/01/13 01:33:14;;;;;;;64.60;30.25;;;6.60;75.50;;;;;;4983173;28;20061;-52
2022/01/13 01:35:40;;;;;;;56.83;28.92;;;6.60;75.60;;;;;;4983596;28;20053;-48
2022/01/13 01:38:09;;;;;;;55.58;28.42;;;6.60;75.70;;;;;;4990802;28;20038;-51
2022/01/13 01:40:35;;;;;;;62.53;31.65;;;6.60;75.80;;;;;;4975240;28;20066;-51
2022/01/13 01:43:03;;;;;;;59.17;31.30;;;6.60;75.90;;;;;;4981758;28;20071;-53
2022/01/13 01:45:33;;;;;;;63.92;29.98;;;6.50;75.90;;;;;;4983103;28;20089;-49
2022/01/13 01:48:04;;;;;;;58.38;28.13;;;6.50;76.00;;;;;;4990177;28;20614;-50
2022/01/13 01:50:36;;;;;;;51.55;28.13;;;6.50;76.00;;;;;;4976578;28;20506;-50
2022/01/13 01:53:03;;;;;;;56.92;30.73;;;6.50;76.10;;;;;;4983550;28;20104;-50
2022/01/13 01:55:30;;;;;;;55.53;28.98;;;6.50;76.10;;;;;;4991832;28;20442;-51
2022/01/13 01:58:00;;;;;;;59.53;28.90;;;6.60;76.00;;;;;;4971382;28;20038;-50
2022/01/13 02:00:27;;;;;;;50.45;27.73;;;6.60;75.90;;;;;;4966725;28;20047;-52
2022/01/13 02:02:55;;;;;;;53.53;28.83;;;6.50;75.90;;;;;;4973817;28;20407;-53
2022/01/13 02:05:23;;;;;;;50.33;28.40;;;6.50;76.00;;;;;;4979338;28;20143;-52
2022/01/13 02:07:49;;;;;;;54.67;29.58;;;6.50;76.20;;;;;;4969919;28;20120;-49
2022/01/13 02:10:17;;;;;;;51.08;27.35;;;6.60;76.20;;;;;;4969635;28;20039;-49
2022/01/13 02:12:48;;;;;;;59.95;28.90;;;6.60;76.20;;;;;;4982921;28;20117;-49
2022/01/13 02:15:28;;;;;;;58.57;29.73;;;6.60;76.10;;;;;;4984968;28;20046;-51
2022/01/13 02:17:56;;;;;;;52.20;29.13;;;6.60;76.10;;;;;;4965373;28;20298;-53
2022/01/13 02:20:24;;;;;;;54.30;28.92;;;6.60;76.10;;;;;;4985903;28;20042;-51
2022/01/13 02:22:50;;;;;;;57.97;28.58;;;6.60;76.10;;;;;;4978834;28;20051;-49
2022/01/13 02:25:17;;;;;;;58.53;31.52;;;6.60;76.10;;;;;;4990862;28;20046;-54
2022/01/13 02:27:44;;;;;;;59.47;29.40;;;6.60;76.20;;;;;;4976423;28;20097;-49
2022/01/13 02:30:12;;;;;;;55.70;28.45;;;6.60;76.20;;;;;;4980128;28;20387;-52
2022/01/13 02:32:42;;;;;;;50.72;28.10;;;6.60;76.10;;;;;;4983057;28;20046;-50
2022/01/13 02:35:09;;;;;;;52.72;28.38;;;6.60;75.90;;;;;;4977936;28;20388;-53
2022/01/13 02:37:36;;;;;;;53.92;27.60;;;6.60;75.70;;;;;;4972324;28;20503;-49
2022/01/13 02:40:03;;;;;;;53.22;27.13;;;6.60;75.70;;;;;;4981976;28;20059;-52
2022/01/13 02:42:30;;;;;;;53.83;27.00;;;6.60;75.80;;;;;;4988856;28;20565;-52
2022/01/13 02:45:05;;;;;;;52.10;26.40;;;6.60;75.90;;;;;;4988813;28;20050;-50
2022/01/13 02:50:09;;;;;;;48.88;26.20;;;6.50;76.00;;;;;;4982833;28;20042;-51
2022/01/13 02:52:36;;;;;;;53.03;28.27;;;6.60;76.00;;;;;;4990358;28;20561;-52
2022/01/13 02:55:03;;;;;;;55.92;28.73;;;6.50;76.50;;;;;;4972400;28;20105;-51
2022/01/13 02:57:32;;;;;;;52.17;29.15;;;6.60;76.00;;;;;;4978196;28;20062;-54
2022/01/13 02:59:59;;;;;;;54.58;29.77;;;6.50;75.90;;;;;;4986092;28;20081;-53
2022/01/13 03:02:30;;;;;;;47.05;26.80;;;6.60;76.00;;;;;;4994853;28;20108;-54
2022/01/13 03:04:58;;;;;;;46.15;26.65;;;6.50;75.80;;;;;;4986761;28;20414;-50
2022/01/13 03:07:26;;;;;;;50.53;26.45;;;6.60;75.90;;;;;;4986997;28;20187;-54
2022/01/13 03:09:53;;;;;;;57.10;28.33;;;6.60;75.90;;;;;;4975095;28;20043;-52
2022/01/13 03:12:20;;;;;;;53.00;26.92;;;6.60;75.90;;;;;;4972407;28;20074;-52
2022/01/13 03:14:46;;;;;;;55.20;28.85;;;6.60;75.90;;;;;;4969420;28;20555;-52
2022/01/13 03:17:13;;;;;;;57.67;28.05;;;6.50;75.80;;;;;;4983621;28;20038;-49
2022/01/13 03:19:40;;;;;;;54.33;28.60;;;6.50;75.80;;;;;;4986215;28;20069;-50
2022/01/13 03:22:09;;;;;;;48.03;26.27;;;6.60;75.80;;;;;;4985727;28;20444;-51
2022/01/13 03:24:36;;;;;;;54.80;28.77;;;6.60;75.70;;;;;;4981585;28;20047;-51
2022/01/13 03:27:03;;;;;;;52.33;27.10;;;6.50;75.60;;;;;;4978498;28;20097;-53
2022/01/13 03:29:31;;;;;;;51.20;27.05;;;6.60;75.70;;;;;;4964016;28;20046;-53
2022/01/13 03:31:57;;;;;;;48.40;25.65;;;6.50;75.70;;;;;;4965995;28;20097;-51
2022/01/13 03:34:25;;;;;;;52.67;25.98;;;6.50;75.70;;;;;;4969381;28;20039;-53
2022/01/13 03:36:53;;;;;;;54.03;26.92;;;6.50;75.90;;;;;;4968854;28;20097;-50
2022/01/13 03:39:19;;;;;;;49.97;25.02;;;6.50;75.80;;;;;;4969837;28;20101;-53
2022/01/13 03:41:46;;;;;;;50.95;25.77;;;6.50;75.80;;;;;;4973018;28;20054;-51
2022/01/13 03:44:27;;;;;;;48.83;24.33;;;6.50;75.90;;;;;;4972081;28;20494;-52
2022/01/13 03:47:01;;;;;;;50.55;25.23;;;6.50;75.90;;;;;;4982735;28;20047;-52
2022/01/13 03:49:29;;;;;;;42.67;24.00;;;6.50;75.70;;;;;;4973927;28;20511;-52
2022/01/13 03:51:58;;;;;;;42.72;24.45;;;6.50;75.70;;;;;;4970804;28;20410;-49
2022/01/13 03:54:31;;;;;;;47.45;25.73;;;6.50;75.70;;;;;;4984658;28;20046;-52
2022/01/13 03:57:16;;;;;;;42.42;24.35;;;6.40;75.60;;;;;;4987566;28;20103;-53
2022/01/13 04:00:20;;;;;;;42.92;22.83;;;6.40;75.60;;;;;;4992051;28;20042;-54
2022/01/13 04:02:48;;;;;;;47.83;24.25;;;6.40;75.40;;;;;;4964531;28;20047;-49
2022/01/13 04:05:15;;;;;;;44.83;23.73;;;6.40;75.50;;;;;;4988673;28;20522;-52
2022/01/13 04:07:42;;;;;;;43.25;23.48;;;6.40;75.60;;;;;;4974276;28;20050;-50
2022/01/13 04:10:28;;;;;;;50.67;25.55;;;6.40;75.70;;;;;;4968980;28;20040;-51
2022/01/13 04:12:56;;;;;;;42.95;22.55;;;6.30;75.60;;;;;;4980354;28;20108;-52
2022/01/13 04:15:25;;;;;;;50.78;24.92;;;6.30;75.60;;;;;;4978205;28;20461;-53
2022/01/13 04:17:52;;;;;;;45.42;24.92;;;6.30;75.60;;;;;;4972953;28;20123;-52
2022/01/13 04:20:19;;;;;;;41.95;24.38;;;6.30;75.70;;;;;;4980442;28;20066;-49
2022/01/13 04:22:46;;;;;;;45.00;24.13;;;6.30;75.70;;;;;;4973738;28;20051;-50
2022/01/13 04:25:14;;;;;;;49.72;25.48;;;6.30;75.80;;;;;;4991294;28;20050;-50
2022/01/13 04:27:44;;;;;;;47.97;25.80;;;6.30;75.70;;;;;;4991597;28;20050;-50
2022/01/13 04:30:33;;;;;;;50.08;28.45;;;6.30;75.80;;;;;;4967285;28;20042;-52
2022/01/13 04:32:58;;;;;;;54.88;26.13;;;6.30;75.80;;;;;;4981804;28;20050;-53
2022/01/13 04:35:25;;;;;;;47.17;24.83;;;6.20;75.80;;;;;;4989568;28;20042;-52
2022/01/13 04:37:52;;;;;;;48.60;25.48;;;6.20;75.90;;;;;;4978847;28;20486;-53
2022/01/13 04:40:18;;;;;;;54.92;29.13;;;6.20;75.90;;;;;;4984497;28;20070;-53
2022/01/13 04:42:52;;;;;;;48.95;28.05;;;6.20;75.80;;;;;;4992758;28;20046;-51
2022/01/13 04:45:21;;;;;;;47.75;27.52;;;6.20;75.70;;;;;;4988313;28;20054;-52
2022/01/13 04:47:49;;;;;;;52.65;28.08;;;6.20;75.60;;;;;;4974862;28;20046;-49
2022/01/13 04:50:16;;;;;;;51.53;28.25;;;6.20;75.70;;;;;;4970867;28;20101;-54
2022/01/13 04:52:43;;;;;;;59.67;31.27;;;6.20;75.70;;;;;;4973002;28;20481;-49
2022/01/13 04:55:12;;;;;;;54.58;28.83;;;6.20;75.70;;;;;;4972183;28;20042;-50
2022/01/13 04:57:39;;;;;;;54.95;29.58;;;6.10;75.80;;;;;;4976326;28;20106;-52
2022/01/13 05:00:09;;;;;;;51.90;29.58;;;6.10;75.90;;;;;;4984470;28;20062;-50
2022/01/13 05:02:38;;;;;;;51.60;28.13;;;6.10;76.00;;;;;;4992706;28;20104;-52
2022/01/13 05:05:05;;;;;;;53.65;27.50;;;6.10;76.10;;;;;;4984796;28;20039;-51
2022/01/13 05:07:33;;;;;;;51.95;29.20;;;6.10;76.10;;;;;;4974962;28;20055;-50
2022/01/13 05:10:00;;;;;;;52.33;27.20;;;6.10;76.80;;;;;;4973183;28;20046;-49
2022/01/13 05:12:34;;;;;;;47.05;27.40;;;6.10;76.20;;;;;;4989519;28;20585;-52
2022/01/13 05:15:04;;;;;;;50.75;28.77;;;6.10;76.20;;;;;;4985494;28;20051;-51
2022/01/13 05:17:59;;;;;;;59.42;29.92;;;6.10;76.10;;;;;;4974401;28;20047;-54
2022/01/13 05:20:22;;;;;;;55.88;28.17;;;6.10;76.10;;;;;;4983174;28;20053;-53
2022/01/13 05:22:49;;;;;;;48.47;26.27;;;6.10;76.20;;;;;;4980885;28;20047;-50
2022/01/13 05:25:17;;;;;;;58.17;31.55;;;6.10;76.30;;;;;;4976145;28;20098;-53
2022/01/13 05:27:45;;;;;;;59.70;30.10;;;6.10;76.40;;;;;;4979636;28;20105;-50
2022/01/13 05:30:16;;;;;;;52.35;29.52;;;6.10;76.30;;;;;;4984159;28;20038;-54
2022/01/13 05:32:43;;;;;;;53.80;29.65;;;6.10;76.40;;;;;;4991829;28;20050;-51
2022/01/13 05:35:10;;;;;;;51.30;26.50;;;6.10;76.40;;;;;;4981632;28;20102;-52
2022/01/13 05:37:37;;;;;;;49.10;26.98;;;6.10;76.40;;;;;;4981204;28;20043;-51
2022/01/13 05:40:04;;;;;;;51.65;27.52;;;6.10;76.30;;;;;;4983899;28;20038;-53
2022/01/13 05:42:31;;;;;;;49.58;26.08;;;6.10;76.20;;;;;;4962828;28;20086;-54
2022/01/13 05:44:59;;;;;;;59.28;28.08;;;6.10;76.20;;;;;;4969018;28;20046;-53
2022/01/13 05:47:26;;;;;;;51.17;26.75;;;6.00;76.10;;;;;;4981158;28;20054;-50
2022/01/13 05:49:53;;;;;;;45.70;25.75;;;6.10;76.00;;;;;;4991520;28;20411;-50
2022/01/13 05:52:19;;;;;;;47.13;27.17;;;6.10;75.90;;;;;;4955609;28;20051;-52
2022/01/13 05:54:46;;;;;;;54.47;26.50;;;6.10;76.00;;;;;;4978619;28;20573;-53
2022/01/13 05:57:13;;;;;;;52.42;27.45;;;6.10;75.90;;;;;;4983218;28;20046;-52
2022/01/13 05:59:40;;;;;;;67.65;28.08;;;6.00;75.80;;;;;;4990297;28;20104;-50
2022/01/13 06:02:06;;;;;;;54.63;27.73;;;6.00;75.80;;;;;;4968278;28;20051;-54
2022/01/13 06:04:33;;;;;;;56.67;27.73;;;6.00;75.70;;;;;;4967301;28;20509;-54
2022/01/13 06:07:01;;;;;;;58.88;28.55;;;6.00;75.90;;;;;;4964287;28;20391;-53
2022/01/13 06:09:28;;;;;;;56.78;29.05;;;5.90;76.00;;;;;;4965377;28;20043;-53
2022/01/13 06:11:58;;;;;;;59.00;29.98;;;5.90;76.00;;;;;;4968528;28;20038;-53
2022/01/13 06:14:25;;;;;;;61.75;28.45;;;5.90;76.00;;;;;;4979621;28;20537;-54
2022/01/13 06:16:53;;;;;;;66.93;31.42;;;5.90;76.00;;;;;;4972028;28;20047;-52
2022/01/13 06:19:19;;;;;;;56.53;28.48;;;5.90;76.10;;;;;;4966669;28;20047;-50
2022/01/13 06:21:47;;;;;;;55.38;29.25;;;5.90;76.30;;;;;;4974975;28;20465;-53
2022/01/13 06:24:14;;;;;;;56.95;28.45;;;5.80;76.30;;;;;;4981499;28;20046;-52
2022/01/13 06:26:41;;;;;;;58.80;28.20;;;5.80;76.40;;;;;;4982264;28;20104;-52
2022/01/13 06:29:07;;;;;;;57.72;28.52;;;5.80;76.50;;;;;;4990657;28;20077;-50
2022/01/13 06:31:34;;;;;;;57.63;28.20;;;5.90;76.40;;;;;;4975604;28;20055;-50
2022/01/13 06:34:01;;;;;;;60.95;29.50;;;5.80;76.30;;;;;;4985018;28;20038;-54
2022/01/13 06:36:28;;;;;;;61.17;30.08;;;5.80;76.40;;;;;;4987589;28;20050;-52
2022/01/13 06:38:55;;;;;;;64.20;30.27;;;5.80;76.40;;;;;;4965510;28;20046;-54
2022/01/13 06:41:22;;;;;;;65.90;30.33;;;5.90;76.60;;;;;;4963310;28;20047;-50
2022/01/13 06:43:49;;;;;;;60.45;30.02;;;5.90;76.60;;;;;;4969134;28;20101;-53
2022/01/13 06:46:16;;;;;;;65.07;30.23;;;5.90;76.70;;;;;;4982409;28;20046;-49
2022/01/13 06:48:45;;;;;;;61.67;30.20;;;5.90;76.60;;;;;;4985493;28;20054;-54
2022/01/13 06:51:11;;;;;;;61.50;30.98;;;5.90;76.50;;;;;;4969595;28;20078;-53
2022/01/13 06:53:38;;;;;;;64.43;30.80;;;5.90;76.50;;;;;;4975422;28;20450;-54
2022/01/13 06:56:05;;;;;;;74.85;34.65;;;5.90;76.50;;;;;;4975866;28;20039;-50
2022/01/13 06:58:32;;;;;;;74.28;35.20;;;5.90;76.60;;;;;;4965290;28;20047;-53
2022/01/13 07:00:59;;;;;;;65.32;31.92;;;5.90;76.60;;;;;;4966279;28;20062;-53
2022/01/13 07:03:26;;;;;;;62.35;30.08;;;5.90;76.50;;;;;;4978174;28;20047;-49
2022/01/13 07:05:53;;;;;;;59.72;28.98;;;5.90;76.40;;;;;;4975763;28;20388;-51
2022/01/13 07:08:19;;;;;;;69.57;31.92;;;5.90;76.40;;;;;;4963897;28;20462;-52
2022/01/13 07:10:46;;;;;;;62.75;29.45;;;5.90;76.50;;;;;;4972405;28;20042;-50
2022/01/13 07:13:15;;;;;;;66.65;30.98;;;5.90;76.40;;;;;;4972637;28;20054;-52
2022/01/13 07:15:45;;;;;;;69.97;29.65;;;5.90;76.40;;;;;;4964327;28;20120;-49
2022/01/13 07:18:13;;;;;;;63.13;28.73;;;5.90;76.40;;;;;;4973172;28;20102;-51
2022/01/13 07:20:42;;;;;;;93.22;31.90;;;5.90;76.30;;;;;;4963894;28;20051;-52
2022/01/13 07:23:10;;;;;;;67.95;31.98;;;5.90;76.20;;;;;;4970088;28;20047;-50
2022/01/13 07:25:39;;;;;;;66.05;31.50;;;5.90;76.10;;;;;;4966215;28;20045;-49
2022/01/13 07:28:06;;;;;;;75.20;30.73;;;5.90;76.00;;;;;;4973598;28;20046;-52
2022/01/13 07:30:34;;;;;;;65.22;32.65;;;5.90;76.00;;;;;;4979026;28;20053;-53
2022/01/13 07:33:01;;;;;;;68.13;30.50;;;5.80;76.10;;;;;;4974584;28;20034;-52
2022/01/13 07:35:27;;;;;;;69.15;31.05;;;5.80;76.30;;;;;;4976450;28;20042;-52
2022/01/13 07:37:54;;;;;;;71.40;31.50;;;5.80;76.50;;;;;;4976486;28;20471;-53
2022/01/13 07:40:21;;;;;;;65.32;32.17;;;5.80;76.60;;;;;;4973023;28;20101;-49
2022/01/13 07:42:48;;;;;;;72.07;32.65;;;5.80;76.70;;;;;;4990917;28;20050;-53
2022/01/13 07:45:16;;;;;;;73.07;32.28;;;5.80;76.70;;;;;;4983227;28;20043;-50
2022/01/13 07:47:43;;;;;;;70.38;31.00;;;5.80;76.70;;;;;;4986065;28;20093;-52
2022/01/13 07:50:13;;;;;;;67.22;30.35;;;5.80;76.70;;;;;;4986846;28;20125;-52
2022/01/13 07:52:40;;;;;;;77.55;32.47;;;5.80;76.80;;;;;;4974372;28;20046;-53
2022/01/13 07:55:07;;;;;;;76.85;31.08;;;5.80;76.80;;;;;;4966131;28;20396;-50
2022/01/13 07:57:37;;;;;;;68.97;30.77;;;5.90;76.80;;;;;;4977849;28;20114;-53
2022/01/13 08:00:06;;;;;;;76.72;30.98;;;5.80;76.80;;;;;;4985625;28;20101;-50
2022/01/13 08:02:38;;;;;;;70.38;30.92;;;5.90;77.00;;;;;;4985524;28;20051;-53
2022/01/13 08:05:06;;;;;;;66.63;30.20;;;5.90;76.80;;;;;;4975654;28;20520;-53
2022/01/13 08:07:33;;;;;;;89.13;29.45;;;5.90;76.80;;;;;;4991412;28;20046;-50
2022/01/13 08:09:59;;;;;;;92.40;28.85;;;5.90;76.80;;;;;;4963381;28;20439;-52
2022/01/13 08:12:26;;;;;;;84.90;29.75;;;5.90;76.70;;;;;;4973529;28;20050;-52
2022/01/13 08:14:53;;;;;;;68.95;29.88;;;6.00;76.70;;;;;;4966555;28;20066;-52
2022/01/13 08:20:08;;;;;;;66.93;27.45;;;5.90;76.50;;;;;;4986765;28;20438;-50
2022/01/13 08:22:35;;;;;;;64.38;26.33;;;5.90;76.60;;;;;;4987567;28;20055;-52
2022/01/13 08:25:08;;;;;;;65.85;24.85;;;5.90;76.60;;;;;;4987383;28;20038;-49
2022/01/13 08:27:34;;;;;;;57.25;27.70;;;6.00;76.60;;;;;;4984009;28;20498;-51
2022/01/13 08:30:02;;;;;;;62.42;26.35;;;6.00;76.50;;;;;;4991864;28;20090;-50
2022/01/13 08:32:28;;;;;;;64.47;30.63;;;6.00;76.50;;;;;;4979198;28;20039;-53
2022/01/13 08:34:55;;;;;;;55.47;24.25;;;6.00;76.50;;;;;;4972000;28;20035;-51
2022/01/13 08:37:22;;;;;;;68.43;28.85;;;6.00;76.60;;;;;;4972916;28;20097;-52
2022/01/13 08:39:49;;;;;;;58.47;27.48;;;6.00;76.60;;;;;;4969414;28;20093;-52
2022/01/13 08:42:16;;;;;;;52.38;27.40;;;6.00;76.50;;;;;;4969411;28;20035;-48
2022/01/13 08:44:43;;;;;;;65.95;25.40;;;6.00;76.50;;;;;;4962804;28;20043;-50
2022/01/13 08:47:10;;;;;;;62.45;24.90;;;6.00;76.40;;;;;;4972365;28;20043;-52
2022/01/13 08:49:37;;;;;;;68.50;25.58;;;6.00;76.20;;;;;;4972899;28;20047;-50
2022/01/13 08:52:05;;;;;;;61.55;24.80;;;6.00;76.10;;;;;;4973445;28;20043;-53
2022/01/13 08:54:32;;;;;;;59.40;23.23;;;6.00;76.10;;;;;;4967757;28;20043;-50
2022/01/13 08:56:59;;;;;;;60.63;26.25;;;6.00;76.00;;;;;;4969152;28;20394;-52
2022/01/13 08:59:27;;;;;;;52.72;26.58;;;6.00;75.90;;;;;;4966797;28;20043;-52
2022/01/13 09:01:54;;;;;;;52.40;24.33;;;6.00;76.00;;;;;;4976669;28;20042;-49
2022/01/13 09:04:21;;;;;;;60.03;25.58;;;6.00;76.20;;;;;;4983972;28;20046;-49
2022/01/13 09:06:48;;;;;;;50.35;24.92;;;6.00;76.30;;;;;;4972391;28;20050;-48
2022/01/13 09:09:15;;;;;;;48.30;24.85;;;6.00;76.30;;;;;;4969171;28;20038;-49
2022/01/13 09:11:43;;;;;;;54.90;25.95;;;6.00;76.40;;;;;;4970024;28;20046;-48
2022/01/13 09:14:10;;;;;;;76.88;25.65;;;6.00;76.30;;;;;;4975866;28;20101;-48
2022/01/13 09:16:45;;;;;;;55.03;24.27;;;6.00;76.10;;;;;;4972459;28;20039;-49
2022/01/13 09:19:14;;;;;;;67.53;25.90;;;6.00;75.90;;;;;;4972538;28;20050;-49
2022/01/13 09:21:43;;;;;;;60.03;22.63;;;6.00;75.70;;;;;;4976470;28;20537;-48
2022/01/13 09:24:19;;;;;;;53.03;23.65;;;6.00;75.60;;;;;;4981889;28;20504;-48
2022/01/13 09:26:46;;;;;;;50.00;23.35;;;6.00;75.60;;;;;;4981834;28;20042;-49
2022/01/13 09:29:14;;;;;;;57.17;22.70;;;6.00;75.90;;;;;;4982405;28;20050;-48
2022/01/13 09:31:42;;;;;;;53.72;24.80;;;6.00;76.00;;;;;;4980053;28;20133;-48
2022/01/13 09:34:10;;;;;;;48.42;22.73;;;6.00;76.00;;;;;;4980108;28;20116;-48
2022/01/13 09:36:37;;;;;;;53.55;24.65;;;6.00;76.20;;;;;;4984957;28;20043;-48
2022/01/13 09:39:06;;;;;;;51.65;23.20;;;6.00;76.20;;;;;;4974478;28;20043;-51
2022/01/13 09:41:34;;;;;;;46.80;22.48;;;6.10;76.30;;;;;;4983665;28;20065;-49
2022/01/13 09:44:04;;;;;;;48.90;23.35;;;6.10;76.40;;;;;;4991113;28;20097;-49
2022/01/13 09:46:34;;;;;;;56.42;24.02;;;6.10;76.30;;;;;;4975378;28;20549;-49
2022/01/13 09:49:04;;;;;;;48.95;24.15;;;6.10;76.20;;;;;;4977281;28;20137;-52
2022/01/13 09:51:33;;;;;;;55.15;22.50;;;6.20;76.20;;;;;;4980819;28;20074;-51
2022/01/13 09:54:00;;;;;;;68.18;25.35;;;6.20;76.20;;;;;;4979657;28;20789;-52
2022/01/13 09:56:27;;;;;;;57.97;23.48;;;6.20;75.90;;;;;;4971124;28;20383;-52
2022/01/13 09:58:54;;;;;;;48.92;23.13;;;6.20;75.70;;;;;;4979730;28;20461;-52
2022/01/13 10:01:21;;;;;;;51.05;23.40;;;6.20;75.60;;;;;;4971173;28;20451;-53
2022/01/13 10:03:48;;;;;;;61.45;23.55;;;6.20;75.60;;;;;;4966175;28;20117;-53
2022/01/13 10:06:18;;;;;;;45.38;22.00;;;6.20;75.60;;;;;;4944743;28;20051;-51
2022/01/13 10:08:50;;;;;;;51.03;22.52;;;6.30;75.60;;;;;;4966517;28;20109;-52
2022/01/13 10:11:37;;;;;;;46.20;21.95;;;6.20;75.40;;;;;;4956229;28;20054;-50
2022/01/13 10:16:22;;;;;;;46.45;21.20;;;6.30;75.50;;;;;;4967494;28;20502;-52
2022/01/13 10:17:05;;;;;;;48.75;22.25;;;6.30;75.60;;;;;;4959471;28;20100;-52
2022/01/13 10:19:46;;;;;;;53.78;20.88;;;6.30;75.50;;;;;;4967003;28;20046;-49
2022/01/13 10:22:25;;;;;;;45.45;21.40;;;6.30;75.30;;;;;;4958373;28;20074;-52
2022/01/13 10:24:54;;;;;;;39.30;19.55;;;6.30;75.40;;;;;;4970906;28;20064;-49
2022/01/13 10:27:32;;;;;;;52.92;22.35;;;6.30;75.60;;;;;;4961492;28;20046;-49
2022/01/13 10:30:14;;;;;;;53.10;19.50;;;6.30;75.40;;;;;;4960737;28;20510;-49
2022/01/13 10:32:44;;;;;;;38.33;18.27;;;6.30;75.30;;;;;;4964922;28;20098;-50
2022/01/13 10:35:12;;;;;;;41.33;19.80;;;6.30;75.30;;;;;;4956657;28;21147;-49
2022/01/13 10:37:44;;;;;;;52.15;22.88;;;6.30;75.50;;;;;;4965389;28;20431;-52
2022/01/13 10:40:22;;;;;;;44.05;21.08;;;6.30;75.40;;;;;;4956270;28;20066;-52
2022/01/13 10:45:35;;;;;;;35.75;18.42;;;6.30;75.60;;;;;;4959988;28;21681;-48
2022/01/13 10:48:28;;;;;;;36.42;19.90;;;6.30;75.80;;;;;;4963977;28;20038;-48
2022/01/13 10:50:58;;;;;;;35.83;19.10;;;6.30;75.90;;;;;;4955064;28;20515;-48
2022/01/13 10:53:33;;;;;;;50.00;21.27;;;6.40;76.20;;;;;;4962297;28;20043;-48
2022/01/13 10:56:08;;;;;;;40.22;21.00;;;6.40;76.20;;;;;;4959739;28;20565;-51
2022/01/13 10:58:48;;;;;;;48.00;21.10;;;6.50;76.30;;;;;;4967554;28;20035;-52
2022/01/13 11:01:20;;;;;;;39.38;20.17;;;6.50;76.40;;;;;;4958487;28;20066;-48
2022/01/13 11:03:48;;;;;;;41.80;21.58;;;6.60;76.50;;;;;;4963375;28;20039;-49
2022/01/13 11:06:15;;;;;;;41.53;22.75;;;6.60;76.40;;;;;;4958301;28;20046;-50
2022/01/13 11:08:46;;;;;;;37.78;20.05;;;6.70;76.20;;;;;;4964701;28;20074;-49
2022/01/13 11:11:26;;;;;;;35.92;19.85;;;6.70;76.40;;;;;;4959615;28;20047;-51
2022/01/13 11:13:58;;;;;;;37.80;20.20;;;6.90;76.40;;;;;;4962861;28;20794;-49
2022/01/13 11:16:26;;;;;;;35.55;19.52;;;6.90;76.20;;;;;;4956576;28;20146;-50
2022/01/13 11:18:53;;;;;;;35.78;20.30;;;7.00;76.20;;;;;;4972181;28;20102;-51
2022/01/13 11:21:21;;;;;;;33.47;19.48;;;7.00;76.10;;;;;;4958432;28;20054;-49
2022/01/13 11:23:52;;;;;;;32.22;19.15;;;7.10;75.90;;;;;;4970813;28;20078;-53
2022/01/13 11:26:21;;;;;;;35.38;19.50;;;7.20;75.60;;;;;;4957071;28;20043;-48
2022/01/13 11:28:48;;;;;;;34.35;20.30;;;7.20;76.30;;;;;;4962368;28;20055;-49
2022/01/13 11:31:15;;;;;;;36.47;19.90;;;7.30;75.60;;;;;;4959832;28;20043;-50
2022/01/13 11:33:42;;;;;;;37.25;20.48;;;7.40;75.50;;;;;;4976447;28;20043;-50
2022/01/13 11:36:12;;;;;;;35.90;20.73;;;7.40;75.40;;;;;;4964335;28;20043;-49
2022/01/13 11:38:56;;;;;;;34.22;19.50;;;7.50;75.40;;;;;;4963331;28;20039;-52
2022/01/13 11:41:23;;;;;;;36.58;19.73;;;7.50;74.80;;;;;;4961230;28;20042;-53
2022/01/13 11:43:50;;;;;;;34.33;19.98;;;7.60;75.00;;;;;;4980961;28;20043;-48
2022/01/13 11:46:22;;;;;;;39.92;20.70;;;7.60;74.70;;;;;;4961082;28;20130;-53
2022/01/13 11:49:01;;;;;;;35.58;20.55;;;7.70;74.20;;;;;;4967352;28;20050;-53
2022/01/13 11:51:49;;;;;;;43.90;22.70;;;7.60;74.00;;;;;;4964245;28;20050;-50
2022/01/13 11:54:33;;;;;;;35.67;20.00;;;7.70;73.60;;;;;;4969074;28;20096;-51
2022/01/13 11:57:22;;;;;;;38.30;20.48;;;7.70;73.50;;;;;;4961625;28;20121;-49
2022/01/13 12:00:00;;;;;;;38.60;21.55;;;7.70;74.10;;;;;;4969083;28;20637;-52
2022/01/13 12:02:32;;;;;;;33.97;19.50;;;7.70;73.70;;;;;;4972992;28;20055;-51
2022/01/13 12:04:59;;;;;;;36.00;21.08;;;7.70;74.00;;;;;;4972990;28;20102;-52
2022/01/13 12:07:44;;;;;;;34.75;20.88;;;7.70;74.10;;;;;;4965556;28;20454;-52
2022/01/13 12:10:37;;;;;;;35.83;20.67;;;7.70;73.70;;;;;;4966697;28;21400;-49
2022/01/13 12:13:29;;;;;;;31.45;19.60;;;7.70;73.70;;;;;;4958188;28;20148;-52
2022/01/13 12:15:56;;;;;;;32.85;20.17;;;7.70;73.90;;;;;;4954849;28;20043;-54
2022/01/13 12:18:43;;;;;;;34.33;20.20;;;7.70;74.40;;;;;;4971973;28;20097;-53
2022/01/13 12:21:31;;;;;;;39.67;20.67;;;7.80;74.00;;;;;;4964154;28;20030;-52
2022/01/13 12:24:00;;;;;;;35.30;20.83;;;7.80;73.70;;;;;;4971227;28;20051;-53
2022/01/13 12:26:33;;;;;;;37.38;21.02;;;7.80;74.20;;;;;;4955896;28;20069;-53
2022/01/13 12:29:13;;;;;;;34.53;21.58;;;7.90;74.10;;;;;;4979613;28;20038;-52
2022/01/13 12:32:00;;;;;;;37.65;22.88;;;8.00;73.90;;;;;;4962059;28;20507;-51
2022/01/13 12:34:33;;;;;;;31.45;20.52;;;8.00;73.80;;;;;;4955060;28;20085;-52
2022/01/13 12:37:13;;;;;;;38.30;21.95;;;8.10;74.00;;;;;;4957415;28;20035;-50
2022/01/13 12:39:58;;;;;;;36.20;21.95;;;8.10;74.00;;;;;;4969320;28;20047;-53
2022/01/13 12:42:38;;;;;;;34.28;21.88;;;8.20;73.50;;;;;;4963566;28;20039;-51
2022/01/13 12:48:04;;;;;;;35.90;21.83;;;8.20;73.50;;;;;;4965937;28;20042;-50
2022/01/13 12:50:33;;;;;;;37.85;21.38;;;8.20;73.60;;;;;;4958216;28;20043;-52
2022/01/13 12:53:08;;;;;;;37.80;22.17;;;8.20;73.40;;;;;;4965209;28;20074;-49
2022/01/13 12:55:37;;;;;;;34.33;22.92;;;8.30;73.10;;;;;;4975666;28;20050;-48
2022/01/13 12:58:05;;;;;;;36.33;23.13;;;8.20;73.20;;;;;;4957062;28;20102;-50
2022/01/13 13:01:03;;;;;;;34.78;22.25;;;8.20;73.40;;;;;;4950947;28;20538;-49
2022/01/13 13:03:30;;;;;;;39.08;22.67;;;8.30;73.60;;;;;;4967864;28;20444;-52
2022/01/13 13:05:57;;;;;;;35.78;22.25;;;8.30;73.70;;;;;;4960122;28;20094;-48
2022/01/13 13:08:26;;;;;;;38.47;23.65;;;8.30;73.40;;;;;;4970116;28;20047;-48
2022/01/13 13:11:01;;;;;;;38.30;22.60;;;8.30;73.40;;;;;;4960452;28;20035;-53
2022/01/13 13:13:30;;;;;;;39.22;23.95;;;8.30;73.40;;;;;;4969604;28;20443;-48
2022/01/13 13:16:04;;;;;;;38.35;23.42;;;8.30;73.20;;;;;;4955771;28;20051;-51
2022/01/13 13:18:32;;;;;;;38.03;22.13;;;8.30;72.90;;;;;;4964919;28;20039;-51